Darstellungsparameter: Aktuell verwendete Einstellungen:
Skalierung der Graphiken ... ?
xyx+y,   Skalierungsfaktor:      Skalierung: Modus: x, Faktor: 1
Darstellungszeitraum ... ?
Vom - - bis: - -   Zeitraum: 17.07.2018 - 17.07.2018
Min/Max/Avg-Anzeige ... ?
Zeige MMA aktuell
Zeige MMA Monat
Zeige MMA alles
Zeige --A aktuell
Zeige --A Monat
Zeige --A alles
Keine MMA-Anzeige
MMA:
Keine MMA-Graphiken
MMA-Basis: 17.07.2018 - 17.07.2018
Quicknavigation für Darstellung... ?
Tage:      1T, 2T, 3T, 5T -1T -2T -3T -5T +1T +2T +3T +5T
Wochen: 1W, 2W, 3W -1W -2W -3W +1W +2W +3W
Monate: 1M, 3M, 6M -1M -3M -6M +1M +3M +6M
Jahre:    1J, 3J, 5J, 10J -1J -3J -5J -10J +1J +3J +5J +10J
Nutze für die Darstellung ... ?
Originaldaten oder Mittelwerte auf ...
Stundenbasis Tagesbasis Wochenbasis
Monatsbasis Jahresbasis      Datenbasis: Original-Daten
Darstellen als:
Statistik (Auto) Statistik J:M      Darstellung:
Zur Graphik,    zurück zur Übersicht aller Sensoren.
 
Tabellarische Datenbersicht: ?
 
Sensor: Nr:Datum:Temp:Feuchte:Taupunkt:
Aussen-T/F 1 17-07-2018 00:00:00 18.8 C 72 % 13.65 C
2 17-07-2018 00:05:00 18.7 C 72 % 13.55 C
3 17-07-2018 00:10:00 18.5 C 73 % 13.57 C
4 17-07-2018 00:15:00 18.4 C 73 % 13.48 C
5 17-07-2018 00:20:00 18.3 C 73 % 13.38 C
6 17-07-2018 00:25:00 18.2 C 73 % 13.28 C
7 17-07-2018 00:30:00 18.2 C 74 % 13.49 C
8 17-07-2018 00:35:00 18.1 C 74 % 13.4 C
9 17-07-2018 00:40:00 18 C 75 % 13.51 C
10 17-07-2018 00:45:00 17.9 C 75 % 13.41 C
11 17-07-2018 00:50:00 17.8 C 75 % 13.31 C
12 17-07-2018 00:55:00 17.7 C 76 % 13.42 C
13 17-07-2018 01:00:00 17.7 C 76 % 13.42 C
14 17-07-2018 01:05:00 17.6 C 76 % 13.32 C
15 17-07-2018 01:10:00 17.4 C 76 % 13.13 C
16 17-07-2018 01:15:00 17.3 C 76 % 13.03 C
17 17-07-2018 01:20:00 17.2 C 76 % 12.94 C
18 17-07-2018 01:25:00 17.1 C 77 % 13.04 C
19 17-07-2018 01:30:00 16.9 C 78 % 13.04 C
20 17-07-2018 01:35:00 16.8 C 78 % 12.94 C
21 17-07-2018 01:40:00 16.7 C 78 % 12.85 C
22 17-07-2018 01:45:00 16.7 C 78 % 12.85 C
23 17-07-2018 01:50:00 16.7 C 79 % 13.04 C
24 17-07-2018 01:55:00 16.6 C 79 % 12.95 C
25 17-07-2018 02:00:00 16.5 C 79 % 12.85 C
Sensor: Nr:Datum:Temp:Feuchte:Taupunkt:
Aussen-T/F 26 17-07-2018 02:05:00 16.4 C 79 % 12.75 C
27 17-07-2018 02:10:00 16.3 C 80 % 12.85 C
28 17-07-2018 02:15:00 16.2 C 80 % 12.75 C
29 17-07-2018 02:20:00 16.1 C 80 % 12.65 C
30 17-07-2018 02:25:00 16.1 C 81 % 12.84 C
31 17-07-2018 02:30:00 16 C 81 % 12.74 C
32 17-07-2018 02:35:00 15.9 C 81 % 12.65 C
33 17-07-2018 02:40:00 15.9 C 82 % 12.83 C
34 17-07-2018 02:45:00 15.9 C 82 % 12.83 C
35 17-07-2018 02:50:00 15.8 C 82 % 12.74 C
36 17-07-2018 02:55:00 15.8 C 82 % 12.74 C
37 17-07-2018 03:00:00 15.8 C 82 % 12.74 C
38 17-07-2018 03:05:00 15.7 C 82 % 12.64 C
39 17-07-2018 03:10:00 15.7 C 82 % 12.64 C
40 17-07-2018 03:15:00 15.7 C 83 % 12.82 C
41 17-07-2018 03:20:00 15.7 C 83 % 12.82 C
42 17-07-2018 03:25:00 15.6 C 83 % 12.72 C
43 17-07-2018 03:30:00 15.6 C 83 % 12.72 C
44 17-07-2018 03:35:00 15.5 C 83 % 12.63 C
45 17-07-2018 03:40:00 15.4 C 83 % 12.53 C
46 17-07-2018 03:45:00 15.3 C 83 % 12.43 C
47 17-07-2018 03:50:00 15.2 C 84 % 12.52 C
48 17-07-2018 03:55:00 15.2 C 84 % 12.52 C
49 17-07-2018 04:00:00 15.2 C 84 % 12.52 C
50 17-07-2018 04:05:00 15.1 C 84 % 12.42 C
Sensor: Nr:Datum:Temp:Feuchte:Taupunkt:
Aussen-T/F 51 17-07-2018 04:10:00 15 C 84 % 12.32 C
52 17-07-2018 04:15:00 14.9 C 84 % 12.22 C
53 17-07-2018 04:20:00 14.8 C 84 % 12.12 C
54 17-07-2018 04:25:00 14.7 C 85 % 12.21 C
55 17-07-2018 04:30:00 14.6 C 85 % 12.11 C
56 17-07-2018 04:35:00 14.4 C 85 % 11.91 C
57 17-07-2018 04:40:00 14.4 C 85 % 11.91 C
58 17-07-2018 04:45:00 14.2 C 84 % 11.54 C
59 17-07-2018 04:50:00 14.1 C 84 % 11.44 C
60 17-07-2018 04:55:00 14 C 84 % 11.34 C
61 17-07-2018 05:00:00 14 C 85 % 11.52 C
62 17-07-2018 05:05:00 13.9 C 85 % 11.42 C
63 17-07-2018 05:10:00 14 C 86 % 11.7 C
64 17-07-2018 05:15:00 14 C 86 % 11.7 C
65 17-07-2018 05:20:00 14 C 87 % 11.87 C
66 17-07-2018 05:25:00 14 C 87 % 11.87 C
67 17-07-2018 05:30:00 14.1 C 88 % 12.14 C
68 17-07-2018 05:35:00 14.1 C 87 % 11.97 C
69 17-07-2018 05:40:00 14.2 C 88 % 12.24 C
70 17-07-2018 05:45:00 14.2 C 88 % 12.24 C
71 17-07-2018 05:50:00 14.3 C 87 % 12.17 C
72 17-07-2018 05:55:00 14.4 C 87 % 12.27 C
73 17-07-2018 06:00:00 14.6 C 86 % 12.29 C
74 17-07-2018 06:05:00 14.5 C 86 % 12.19 C
75 17-07-2018 06:10:00 14.5 C 86 % 12.19 C
Sensor: Nr:Datum:Temp:Feuchte:Taupunkt:
Aussen-T/F 76 17-07-2018 06:15:00 14.4 C 86 % 12.09 C
77 17-07-2018 06:20:00 14.4 C 86 % 12.09 C
78 17-07-2018 06:25:00 14.3 C 86 % 11.99 C
79 17-07-2018 06:30:00 14.3 C 86 % 11.99 C
80 17-07-2018 06:35:00 14.3 C 87 % 12.17 C
81 17-07-2018 06:40:00 14.3 C 87 % 12.17 C
82 17-07-2018 06:45:00 14.3 C 87 % 12.17 C
83 17-07-2018 06:50:00 14.4 C 87 % 12.27 C
84 17-07-2018 06:55:00 14.4 C 88 % 12.44 C
85 17-07-2018 07:00:00 14.5 C 88 % 12.54 C
86 17-07-2018 07:05:00 14.6 C 88 % 12.64 C
87 17-07-2018 07:10:00 14.7 C 87 % 12.56 C
88 17-07-2018 07:15:00 14.7 C 87 % 12.56 C
89 17-07-2018 07:20:00 14.8 C 87 % 12.66 C
90 17-07-2018 07:25:00 14.9 C 87 % 12.76 C
91 17-07-2018 07:30:00 15 C 87 % 12.86 C
92 17-07-2018 07:35:00 15.1 C 85 % 12.6 C
93 17-07-2018 07:40:00 15.3 C 86 % 12.97 C
94 17-07-2018 07:45:00 15.4 C 85 % 12.89 C
95 17-07-2018 07:50:00 15.6 C 85 % 13.09 C
96 17-07-2018 07:55:00 15.7 C 84 % 13.01 C
97 17-07-2018 08:00:00 15.9 C 84 % 13.2 C
98 17-07-2018 08:05:00 16 C 83 % 13.12 C
99 17-07-2018 08:10:00 16.3 C 81 % 13.04 C
100 17-07-2018 08:15:00 16.6 C 80 % 13.14 C
Sensor: Nr:Datum:Temp:Feuchte:Taupunkt:
Aussen-T/F 101 17-07-2018 08:20:00 16.8 C 78 % 12.94 C
102 17-07-2018 08:25:00 17.2 C 76 % 12.94 C
103 17-07-2018 08:30:00 17.4 C 75 % 12.93 C
104 17-07-2018 08:35:00 17.6 C 74 % 12.91 C
105 17-07-2018 08:40:00 17.8 C 73 % 12.9 C
106 17-07-2018 08:45:00 18.1 C 73 % 13.19 C
107 17-07-2018 08:50:00 18.2 C 73 % 13.28 C
108 17-07-2018 08:55:00 18.4 C 71 % 13.05 C
109 17-07-2018 09:00:00 18.6 C 70 % 13.02 C
110 17-07-2018 09:05:00 18.8 C 68 % 12.77 C
111 17-07-2018 09:10:00 18.9 C 67 % 12.64 C
112 17-07-2018 09:15:00 19.1 C 68 % 13.06 C
113 17-07-2018 09:20:00 19.2 C 67 % 12.93 C
114 17-07-2018 09:25:00 19.4 C 70 % 13.79 C
115 17-07-2018 09:30:00 19.6 C 71 % 14.2 C
116 17-07-2018 09:35:00 19.7 C 73 % 14.73 C
117 17-07-2018 09:40:00 19.7 C 72 % 14.51 C
118 17-07-2018 09:45:00 19.8 C 71 % 14.39 C
119 17-07-2018 09:50:00 19.9 C 69 % 14.05 C
120 17-07-2018 09:55:00 20.1 C 69 % 14.24 C
121 17-07-2018 10:00:00 20.3 C 70 % 14.65 C
122 17-07-2018 10:05:00 20.4 C 69 % 14.52 C
123 17-07-2018 10:10:00 20.7 C 70 % 15.03 C
124 17-07-2018 10:15:00 20.8 C 69 % 14.91 C
125 17-07-2018 10:20:00 21.1 C 65 % 14.27 C
Sensor: Nr:Datum:Temp:Feuchte:Taupunkt:
Aussen-T/F 126 17-07-2018 10:25:00 21.6 C 64 % 14.5 C
127 17-07-2018 10:30:00 22.2 C 63 % 14.82 C
128 17-07-2018 10:35:00 22.8 C 60 % 14.63 C
129 17-07-2018 10:40:00 23.3 C 58 % 14.58 C
130 17-07-2018 10:45:00 23.7 C 56 % 14.4 C
131 17-07-2018 10:50:00 23.8 C 57 % 14.77 C
132 17-07-2018 10:55:00 24.1 C 57 % 15.05 C
133 17-07-2018 11:00:00 24.2 C 55 % 14.59 C
134 17-07-2018 11:05:00 24.3 C 54 % 14.4 C
135 17-07-2018 11:10:00 24.4 C 55 % 14.78 C
136 17-07-2018 11:15:00 24.6 C 53 % 14.39 C
137 17-07-2018 11:20:00 24.8 C 55 % 15.15 C
138 17-07-2018 11:25:00 24.9 C 50 % 13.77 C
139 17-07-2018 11:30:00 25.1 C 50 % 13.95 C
140 17-07-2018 11:35:00 25.2 C 50 % 14.04 C
141 17-07-2018 11:40:00 25.3 C 51 % 14.44 C
142 17-07-2018 11:45:00 25.4 C 50 % 14.22 C
143 17-07-2018 11:50:00 25.4 C 50 % 14.22 C
144 17-07-2018 11:55:00 25.4 C 50 % 14.22 C
145 17-07-2018 12:00:00 25.4 C 51 % 14.53 C
146 17-07-2018 12:05:00 25.5 C 50 % 14.32 C
147 17-07-2018 12:10:00 25.6 C 50 % 14.41 C
148 17-07-2018 12:15:00 25.7 C 50 % 14.5 C
149 17-07-2018 12:20:00 25.8 C 50 % 14.59 C
150 17-07-2018 12:25:00 25.8 C 50 % 14.59 C
Sensor: Nr:Datum:Temp:Feuchte:Taupunkt:
Aussen-T/F 151 17-07-2018 12:30:00 26 C 49 % 14.46 C
152 17-07-2018 12:35:00 26.2 C 48 % 14.32 C
153 17-07-2018 12:40:00 26.3 C 49 % 14.74 C
154 17-07-2018 12:45:00 26.3 C 47 % 14.09 C
155 17-07-2018 12:50:00 26.4 C 47 % 14.18 C
156 17-07-2018 12:55:00 26.6 C 47 % 14.36 C
157 17-07-2018 13:00:00 26.8 C 46 % 14.21 C
158 17-07-2018 13:05:00 26.9 C 46 % 14.3 C
159 17-07-2018 13:10:00 26.9 C 46 % 14.3 C
160 17-07-2018 13:15:00 27 C 44 % 13.71 C
161 17-07-2018 13:20:00 27.1 C 44 % 13.8 C
162 17-07-2018 13:25:00 27.3 C 44 % 13.98 C
163 17-07-2018 13:30:00 27.4 C 43 % 13.72 C
164 17-07-2018 13:35:00 27.7 C 43 % 13.99 C
165 17-07-2018 13:40:00 27.9 C 42 % 13.8 C
166 17-07-2018 13:45:00 28 C 40 % 13.14 C
167 17-07-2018 13:50:00 27.4 C 42 % 13.35 C
168 17-07-2018 13:55:00 27 C 43 % 13.36 C
169 17-07-2018 14:00:00 26.8 C 45 % 13.87 C
170 17-07-2018 14:05:00 26.4 C 46 % 13.85 C
171 17-07-2018 14:10:00 26.2 C 46 % 13.67 C
172 17-07-2018 14:15:00 26.1 C 44 % 12.9 C
173 17-07-2018 14:20:00 25.9 C 45 % 13.06 C
174 17-07-2018 14:25:00 25.9 C 43 % 12.37 C
175 17-07-2018 14:30:00 26.1 C 44 % 12.9 C
Sensor: Nr:Datum:Temp:Feuchte:Taupunkt:
Aussen-T/F 176 17-07-2018 14:35:00 26.4 C 41 % 12.09 C
177 17-07-2018 14:40:00 27.1 C 40 % 12.34 C
178 17-07-2018 14:45:00 27.5 C 39 % 12.31 C
179 17-07-2018 14:50:00 27.7 C 38 % 12.1 C
180 17-07-2018 14:55:00 27.8 C 39 % 12.58 C
181 17-07-2018 15:00:00 28.2 C 40 % 13.32 C
182 17-07-2018 15:05:00 28.4 C 40 % 13.5 C
183 17-07-2018 15:10:00 28.4 C 39 % 13.11 C
184 17-07-2018 15:15:00 28.1 C 38 % 12.45 C
185 17-07-2018 15:20:00 27.7 C 39 % 12.49 C
186 17-07-2018 15:25:00 27.3 C 43 % 13.63 C
187 17-07-2018 15:30:00 26.9 C 45 % 13.96 C
188 17-07-2018 15:35:00 26.8 C 47 % 14.55 C
189 17-07-2018 15:40:00 26.6 C 49 % 15.01 C
190 17-07-2018 15:45:00 26.3 C 49 % 14.74 C
191 17-07-2018 15:50:00 26.1 C 51 % 15.17 C
192 17-07-2018 15:55:00 25.9 C 50 % 14.68 C
193 17-07-2018 16:00:00 25.8 C 50 % 14.59 C
194 17-07-2018 16:05:00 25.6 C 53 % 15.31 C
195 17-07-2018 16:10:00 25.4 C 55 % 15.7 C
196 17-07-2018 16:15:00 25.3 C 54 % 15.33 C
197 17-07-2018 16:20:00 25.3 C 52 % 14.74 C
198 17-07-2018 16:25:00 25.4 C 55 % 15.7 C
199 17-07-2018 16:30:00 25.6 C 55 % 15.89 C
200 17-07-2018 16:35:00 25.7 C 53 % 15.4 C
Sensor: Nr:Datum:Temp:Feuchte:Taupunkt:
Aussen-T/F 201 17-07-2018 16:40:00 25.8 C 52 % 15.2 C
202 17-07-2018 16:45:00 25.9 C 51 % 14.99 C
203 17-07-2018 16:50:00 25.9 C 52 % 15.29 C
204 17-07-2018 16:55:00 26.2 C 51 % 15.27 C
205 17-07-2018 17:00:00 26.4 C 51 % 15.45 C
206 17-07-2018 17:05:00 26.6 C 52 % 15.94 C
207 17-07-2018 17:10:00 26.9 C 49 % 15.28 C
208 17-07-2018 17:15:00 27.3 C 47 % 15 C
209 17-07-2018 17:20:00 27.7 C 48 % 15.69 C
210 17-07-2018 17:25:00 27.9 C 46 % 15.21 C
211 17-07-2018 17:30:00 28.3 C 46 % 15.57 C
212 17-07-2018 17:35:00 28.7 C 41 % 14.15 C
213 17-07-2018 17:40:00 28.6 C 42 % 14.43 C
214 17-07-2018 17:45:00 28.4 C 42 % 14.25 C
215 17-07-2018 17:50:00 28.4 C 41 % 13.88 C
216 17-07-2018 17:55:00 28.4 C 42 % 14.25 C
217 17-07-2018 18:00:00 28.6 C 41 % 14.06 C
218 17-07-2018 18:05:00 28.8 C 41 % 14.24 C
219 17-07-2018 18:10:00 28.9 C 42 % 14.7 C
220 17-07-2018 18:15:00 29.1 C 41 % 14.51 C
221 17-07-2018 18:20:00 29.4 C 40 % 14.39 C
222 17-07-2018 18:25:00 29.5 C 40 % 14.48 C
223 17-07-2018 18:30:00 29.4 C 39 % 14 C
224 17-07-2018 18:35:00 29.1 C 40 % 14.12 C
225 17-07-2018 18:40:00 29 C 41 % 14.42 C
Sensor: Nr:Datum:Temp:Feuchte:Taupunkt:
Aussen-T/F 226 17-07-2018 18:45:00 29 C 41 % 14.42 C
227 17-07-2018 18:50:00 29.1 C 41 % 14.51 C
228 17-07-2018 18:55:00 29.2 C 39 % 13.82 C
229 17-07-2018 19:00:00 29.1 C 39 % 13.73 C
230 17-07-2018 19:05:00 28.8 C 41 % 14.24 C
231 17-07-2018 19:10:00 28.5 C 40 % 13.59 C
232 17-07-2018 19:15:00 28.2 C 42 % 14.07 C
233 17-07-2018 19:20:00 27.9 C 46 % 15.21 C
234 17-07-2018 19:25:00 27.6 C 46 % 14.94 C
235 17-07-2018 19:30:00 27.1 C 47 % 14.82 C
236 17-07-2018 19:35:00 26.4 C 51 % 15.45 C
237 17-07-2018 19:40:00 25.4 C 55 % 15.7 C
238 17-07-2018 19:45:00 24.4 C 58 % 15.6 C
239 17-07-2018 19:50:00 23.6 C 61 % 15.64 C
240 17-07-2018 19:55:00 23 C 63 % 15.58 C
241 17-07-2018 20:00:00 22.5 C 65 % 15.59 C
242 17-07-2018 20:05:00 22.3 C 67 % 15.88 C
243 17-07-2018 20:10:00 22.1 C 68 % 15.92 C
244 17-07-2018 20:15:00 21.8 C 69 % 15.86 C
245 17-07-2018 20:20:00 21.6 C 69 % 15.67 C
246 17-07-2018 20:25:00 21.6 C 70 % 15.89 C
247 17-07-2018 20:30:00 21.6 C 70 % 15.89 C
248 17-07-2018 20:35:00 21.5 C 69 % 15.57 C
249 17-07-2018 20:40:00 21.4 C 68 % 15.25 C
250 17-07-2018 20:45:00 21.4 C 66 % 14.79 C
Sensor: Nr:Datum:Temp:Feuchte:Taupunkt:
Aussen-T/F 251 17-07-2018 20:50:00 21.3 C 68 % 15.16 C
252 17-07-2018 20:55:00 21.3 C 67 % 14.93 C
253 17-07-2018 21:00:00 21.3 C 67 % 14.93 C
254 17-07-2018 21:05:00 21.3 C 68 % 15.16 C
255 17-07-2018 21:10:00 21.3 C 68 % 15.16 C
256 17-07-2018 21:15:00 21.3 C 69 % 15.38 C
257 17-07-2018 21:20:00 21.3 C 69 % 15.38 C
258 17-07-2018 21:25:00 21.2 C 69 % 15.29 C
259 17-07-2018 21:30:00 21.2 C 69 % 15.29 C
260 17-07-2018 21:35:00 21.1 C 69 % 15.19 C
261 17-07-2018 21:40:00 21 C 70 % 15.32 C
262 17-07-2018 21:45:00 20.8 C 71 % 15.35 C
263 17-07-2018 21:50:00 20.6 C 71 % 15.16 C
264 17-07-2018 21:55:00 20.3 C 72 % 15.09 C
265 17-07-2018 22:00:00 20.1 C 73 % 15.11 C
266 17-07-2018 22:05:00 19.8 C 74 % 15.03 C
267 17-07-2018 22:10:00 19.6 C 75 % 15.05 C
268 17-07-2018 22:15:00 19.4 C 75 % 14.86 C
269 17-07-2018 22:20:00 19.3 C 76 % 14.97 C
270 17-07-2018 22:25:00 19.2 C 76 % 14.87 C
271 17-07-2018 22:30:00 19.1 C 76 % 14.77 C
272 17-07-2018 22:35:00 18.9 C 76 % 14.58 C
273 17-07-2018 22:40:00 18.7 C 76 % 14.39 C
274 17-07-2018 22:45:00 18.6 C 77 % 14.49 C
275 17-07-2018 22:50:00 18.4 C 77 % 14.3 C
Sensor: Nr:Datum:Temp:Feuchte:Taupunkt:
Aussen-T/F 276 17-07-2018 22:55:00 18.4 C 77 % 14.3 C
277 17-07-2018 23:00:00 18.3 C 78 % 14.4 C
278 17-07-2018 23:05:00 18.2 C 78 % 14.3 C
279 17-07-2018 23:10:00 18.1 C 79 % 14.4 C
280 17-07-2018 23:15:00 17.9 C 79 % 14.21 C
281 17-07-2018 23:20:00 17.8 C 80 % 14.31 C
282 17-07-2018 23:25:00 17.7 C 80 % 14.21 C
283 17-07-2018 23:30:00 17.6 C 80 % 14.11 C
284 17-07-2018 23:35:00 17.4 C 81 % 14.11 C
285 17-07-2018 23:40:00 17.3 C 81 % 14.01 C
286 17-07-2018 23:45:00 17.1 C 82 % 14 C
287 17-07-2018 23:50:00 16.9 C 82 % 13.81 C
288 17-07-2018 23:55:00 16.9 C 83 % 14 C

Legende:
   Min
   Max


Maximal/Minimal-Werte vom 17.07.2018 - 17.07.2018

Sensor Min Max Avg
Temp
(Aussen-T/F)
13.9 °C
17-07-2018  05:05:00
29.5 °C
17-07-2018  18:25:00
21.02 °C
Feuchte
(Aussen-T/F)
38 %
17-07-2018  14:50:00
88 %
17-07-2018  05:30:00
65.85 %
Taupunkt
(Aussen-T/F)
11.34 C
17-07-2018  04:55:00
15.94 C
17-07-2018  17:05:00
13.72 C

Die Daten stammen von einer Davis Vantage Pro 2 Wetter-Station und werden unter Linux mit der Software wview2wettercgi und aufbereitet. Alle Angaben erfolgen ohne Gewähr für ihre Vollständigkeit oder Richtigkeit.
Kontakt: Rainer Krienke krienke@uni-koblenz.de . Meine Webseiten an der Uni Koblenz oder privat.
Version: $Revision: 0.78 $